createdAt,value
2023-04-18T00:00:38.283Z,101363.78
2023-04-18T00:03:05.165Z,101366.59
2023-04-18T00:05:32.586Z,101356.22
2023-04-18T00:07:59.812Z,101359.81
2023-04-18T00:10:27.029Z,101355.06
2023-04-18T00:12:54.319Z,101359.81
2023-04-18T00:15:21.518Z,101355.84
2023-04-18T00:17:48.797Z,101353.44
2023-04-18T00:20:17.987Z,101358.22
2023-04-18T00:22:44.409Z,101359.81
2023-04-18T00:25:10.841Z,101366.19
2023-04-18T00:27:37.233Z,101361.41
2023-04-18T00:30:04.471Z,101362.59
2023-04-18T00:32:30.945Z,101357.03
2023-04-18T00:34:58.192Z,101366.19
2023-04-18T00:37:24.600Z,101357.84
2023-04-18T00:39:51.017Z,101364.22
2023-04-18T00:42:20.189Z,101362.22
2023-04-18T00:44:46.734Z,101367.78
2023-04-18T00:47:13.078Z,101363.41
2023-04-18T00:49:39.418Z,101356.63
2023-04-18T00:52:06.636Z,101366.19
2023-04-18T00:54:33.037Z,101367.78
2023-04-18T00:56:59.422Z,101369.78
2023-04-18T00:59:25.771Z,101361.41
2023-04-18T01:01:52.304Z,101367.00
2023-04-18T01:04:19.788Z,101370.56
2023-04-18T01:06:46.310Z,101365.00
2023-04-18T01:09:12.684Z,101364.22
2023-04-18T01:11:39.026Z,101365.00
2023-04-18T01:14:05.392Z,101365.00
2023-04-18T01:16:32.637Z,101367.78
2023-04-18T01:18:59.021Z,101368.59
2023-04-18T01:21:25.347Z,101367.78
2023-04-18T01:23:51.685Z,101365.81
2023-04-18T01:26:18.900Z,101367.78
2023-04-18T01:28:45.257Z,101362.22
2023-04-18T01:31:11.641Z,101359.44
2023-04-18T01:33:38.059Z,101357.47
2023-04-18T01:36:04.493Z,101360.25
2023-04-18T01:38:30.859Z,101355.47
2023-04-18T01:40:57.232Z,101354.69
2023-04-18T01:43:23.587Z,101349.91
2023-04-18T01:45:50.052Z,101347.13
2023-04-18T01:48:17.306Z,101351.91
2023-04-18T01:50:43.711Z,101354.69
2023-04-18T01:53:10.125Z,101354.69
2023-04-18T01:55:36.467Z,101352.69
2023-04-18T01:58:02.816Z,101355.47
2023-04-18T02:00:30.136Z,101352.69
2023-04-18T02:02:56.668Z,101356.25
2023-04-18T02:05:23.188Z,101354.28
2023-04-18T02:07:49.551Z,101348.72
2023-04-18T02:10:15.997Z,101348.72
2023-04-18T02:12:43.204Z,101350.69
2023-04-18T02:15:09.548Z,101339.56
2023-04-18T02:17:35.901Z,101342.34
2023-04-18T02:20:02.265Z,101343.94
2023-04-18T02:22:29.473Z,101339.56
2023-04-18T02:24:55.838Z,101335.97
2023-04-18T02:27:23.112Z,101340.38
2023-04-18T02:29:50.350Z,101336.75
2023-04-18T02:32:18.605Z,101339.56
2023-04-18T02:34:44.969Z,101336.75
2023-04-18T02:37:11.335Z,101339.56
2023-04-18T02:39:37.770Z,101333.97
2023-04-18T02:42:04.996Z,101345.94
2023-04-18T02:44:31.351Z,101341.16
2023-04-18T02:46:58.550Z,101348.72
2023-04-18T02:49:25.818Z,101340.38
2023-04-18T02:51:52.141Z,101345.13
2023-04-18T02:54:19.343Z,101345.13
2023-04-18T02:56:45.684Z,101342.34
2023-04-18T02:59:12.917Z,101343.16
2023-04-18T03:01:40.215Z,101354.28
2023-04-18T03:04:06.650Z,101354.28
2023-04-18T03:06:33.007Z,101363.44
2023-04-18T03:08:59.368Z,101354.28
2023-04-18T03:11:25.763Z,101352.31
2023-04-18T03:13:52.114Z,101358.66
2023-04-18T03:16:19.409Z,101360.66
2023-04-18T03:18:45.764Z,101348.72
2023-04-18T03:21:12.107Z,101357.06
2023-04-18T03:23:41.226Z,101355.09
2023-04-18T03:26:07.565Z,101349.50
2023-04-18T03:28:34.037Z,101359.44
2023-04-18T03:31:00.409Z,101355.09
2023-04-18T03:33:26.736Z,101359.44
2023-04-18T03:35:53.118Z,101358.66
2023-04-18T03:38:19.435Z,101358.66
2023-04-18T03:40:45.779Z,101363.06
2023-04-18T03:43:14.904Z,101353.88
2023-04-18T03:45:41.257Z,101364.22
2023-04-18T03:48:08.461Z,101358.66
2023-04-18T03:50:35.695Z,101367.81
2023-04-18T03:53:02.025Z,101359.44
2023-04-18T03:55:28.362Z,101365.03
2023-04-18T03:57:54.726Z,101366.63
2023-04-18T04:00:21.077Z,101363.06
2023-04-18T04:02:47.707Z,101366.63
2023-04-18T04:05:14.198Z,101353.88
2023-04-18T04:07:40.551Z,101360.28
2023-04-18T04:10:07.766Z,101363.84
2023-04-18T04:12:34.070Z,101363.84
2023-04-18T04:15:01.298Z,101358.28
2023-04-18T04:17:27.670Z,101366.63
2023-04-18T04:19:54.120Z,101363.84
2023-04-18T04:22:21.355Z,101367.81
2023-04-18T04:24:49.562Z,101372.19
2023-04-18T04:27:15.924Z,101380.56
2023-04-18T04:29:42.260Z,101374.97
2023-04-18T04:32:08.660Z,101375.78
2023-04-18T04:34:35.903Z,101382.16
2023-04-18T04:37:02.310Z,101379.38
2023-04-18T04:39:28.692Z,101373.81
2023-04-18T04:41:55.003Z,101384.94
2023-04-18T04:44:21.389Z,101374.59
2023-04-18T04:46:47.777Z,101380.19
2023-04-18T04:49:15.044Z,101382.97
2023-04-18T04:51:41.372Z,101380.97
2023-04-18T04:54:07.729Z,101384.53
2023-04-18T04:56:34.103Z,101389.31
2023-04-18T04:59:00.471Z,101390.09
2023-04-18T05:01:26.818Z,101385.34
2023-04-18T05:03:54.204Z,101391.72
2023-04-18T05:06:21.547Z,101393.34
2023-04-18T05:08:48.811Z,101398.53
2023-04-18T05:11:16.039Z,101394.53
2023-04-18T05:13:42.350Z,101392.53
2023-04-18T05:16:09.697Z,101398.09
2023-04-18T05:18:36.949Z,101394.94
2023-04-18T05:21:03.337Z,101391.78
2023-04-18T05:23:30.020Z,101388.97
2023-04-18T05:28:28.581Z,101393.00
2023-04-18T05:30:58.049Z,101399.75
2023-04-18T05:33:26.655Z,101392.19
2023-04-18T05:35:53.370Z,101403.34
2023-04-18T05:38:22.591Z,101394.59
2023-04-18T05:40:49.850Z,101397.38
2023-04-18T05:43:16.347Z,101393.81
2023-04-18T05:45:42.829Z,101393.81
2023-04-18T05:48:09.361Z,101395.44
2023-04-18T05:50:35.968Z,101395.44
2023-04-18T05:53:03.198Z,101396.22
2023-04-18T05:55:30.436Z,101396.59
2023-04-18T05:57:58.731Z,101398.59
2023-04-18T06:00:25.217Z,101392.19
2023-04-18T06:02:51.811Z,101398.59
2023-04-18T06:05:20.450Z,101397.78
2023-04-18T06:07:47.107Z,101401.38
2023-04-18T06:10:13.607Z,101397.78
2023-04-18T06:12:40.054Z,101397.78
2023-04-18T06:15:06.813Z,101404.16
2023-04-18T06:17:34.089Z,101408.91
2023-04-18T06:20:01.370Z,101404.16
2023-04-18T06:22:28.663Z,101402.56
2023-04-18T06:24:55.933Z,101404.97
2023-04-18T06:27:30.491Z,101405.75
2023-04-18T06:29:58.192Z,101400.59
2023-04-18T06:32:24.789Z,101406.16
2023-04-18T06:34:52.131Z,101406.97
2023-04-18T06:37:18.575Z,101408.16
2023-04-18T06:39:45.826Z,101404.56
2023-04-18T06:42:12.229Z,101409.34
2023-04-18T06:44:39.546Z,101412.13
2023-04-18T06:47:05.970Z,101411.31
2023-04-18T06:49:32.475Z,101404.97
2023-04-18T06:52:00.788Z,101414.09
2023-04-18T06:54:28.032Z,101414.09
2023-04-18T06:56:56.339Z,101410.94
2023-04-18T06:59:23.570Z,101412.94
2023-04-18T07:01:50.976Z,101410.16
2023-04-18T07:04:18.596Z,101418.53
2023-04-18T07:06:45.381Z,101412.53
2023-04-18T07:09:12.672Z,101415.34
2023-04-18T07:11:39.945Z,101412.53
2023-04-18T07:14:07.402Z,101420.53
2023-04-18T07:16:34.779Z,101420.13
2023-04-18T07:19:01.230Z,101407.78
2023-04-18T07:21:31.200Z,101412.19
2023-04-18T07:23:58.478Z,101420.16
2023-04-18T07:26:24.980Z,101412.59
2023-04-18T07:28:52.310Z,101419.06
2023-04-18T07:31:18.804Z,101415.38
2023-04-18T07:33:46.161Z,101412.47
2023-04-18T07:36:12.584Z,101416.88
2023-04-18T07:38:39.922Z,101423.59
2023-04-18T07:41:07.259Z,101417.88
2023-04-18T07:43:33.756Z,101420.34
2023-04-18T07:46:01.215Z,101419.19
2023-04-18T07:48:27.757Z,101419.56
2023-04-18T07:50:55.154Z,101423.34
2023-04-18T07:53:22.550Z,101424.09
2023-04-18T07:55:49.927Z,101420.16
2023-04-18T07:58:17.253Z,101424.47
2023-04-18T08:00:44.738Z,101424.16
2023-04-18T08:03:12.556Z,101424.16
2023-04-18T08:05:39.406Z,101433.66
2023-04-18T08:08:05.873Z,101431.31
2023-04-18T08:10:33.242Z,101430.75
2023-04-18T08:13:00.721Z,101418.19
2023-04-18T08:15:28.120Z,101423.25
2023-04-18T08:17:55.534Z,101431.16
2023-04-18T08:20:23.033Z,101423.25
2023-04-18T08:23:05.221Z,101435.22
2023-04-18T08:25:35.246Z,101420.97
2023-04-18T08:28:01.703Z,101432.13
2023-04-18T08:30:29.159Z,101427.41
2023-04-18T08:32:56.600Z,101422.38
2023-04-18T08:35:24.038Z,101413.94
2023-04-18T08:37:51.407Z,101412.75
2023-04-18T08:40:17.839Z,101417.63
2023-04-18T08:42:45.257Z,101417.63
2023-04-18T08:45:11.729Z,101415.22
2023-04-18T08:47:38.207Z,101415.53
2023-04-18T08:50:04.690Z,101407.81
2023-04-18T08:52:31.195Z,101410.66
2023-04-18T08:54:57.712Z,101405.91
2023-04-18T08:57:25.090Z,101404.28
2023-04-18T08:59:52.537Z,101411.78
2023-04-18T09:02:19.906Z,101403.06
2023-04-18T09:04:47.430Z,101395.28
2023-04-18T09:07:13.888Z,101394.06
2023-04-18T09:09:41.260Z,101402.56
2023-04-18T09:12:07.720Z,101399.28
2023-04-18T09:14:35.111Z,101398.81
2023-04-18T09:17:01.694Z,101394.47
2023-04-18T09:19:28.201Z,101398.53
2023-04-18T09:21:55.604Z,101398.25
2023-04-18T09:24:22.075Z,101387.09
2023-04-18T09:26:49.512Z,101394.13
2023-04-18T09:29:15.970Z,101390.97
2023-04-18T09:31:43.351Z,101387.03
2023-04-18T09:34:10.766Z,101385.59
2023-04-18T09:36:37.362Z,101382.34
2023-04-18T09:39:04.820Z,101382.03
2023-04-18T09:41:32.214Z,101381.91
2023-04-18T09:43:58.660Z,101384.78
2023-04-18T09:46:26.078Z,101387.59
2023-04-18T09:48:52.533Z,101387.16
2023-04-18T09:51:19.871Z,101377.47
2023-04-18T09:53:47.266Z,101391.63
2023-04-18T09:56:14.680Z,101384.81
2023-04-18T09:58:41.151Z,101388.75
2023-04-18T10:01:07.679Z,101385.63
2023-04-18T10:03:35.293Z,101383.97
2023-04-18T10:06:01.832Z,101382.41
2023-04-18T10:08:29.237Z,101382.06
2023-04-18T10:10:56.621Z,101383.63
2023-04-18T10:13:23.116Z,101376.84
2023-04-18T10:15:53.622Z,101376.06
2023-04-18T10:18:20.205Z,101381.97
2023-04-18T10:20:46.713Z,101372.84
2023-04-18T10:23:14.099Z,101374.44
2023-04-18T10:25:40.655Z,101370.50
2023-04-18T10:28:08.106Z,101365.75
2023-04-18T10:30:34.592Z,101368.06
2023-04-18T10:33:02.070Z,101364.28
2023-04-18T10:35:28.590Z,101371.13
2023-04-18T10:37:55.979Z,101366.09
2023-04-18T10:40:23.343Z,101361.00
2023-04-18T10:42:50.709Z,101362.16
2023-04-18T10:45:18.101Z,101355.78
2023-04-18T10:47:44.642Z,101366.88
2023-04-18T10:50:11.163Z,101357.69
2023-04-18T10:52:37.648Z,101360.53
2023-04-18T10:55:05.048Z,101350.59
2023-04-18T10:57:32.486Z,101350.94
2023-04-18T10:59:59.857Z,101353.28
2023-04-18T11:02:26.456Z,101353.25
2023-04-18T11:04:53.012Z,101350.09
2023-04-18T11:07:20.400Z,101345.66
2023-04-18T11:09:46.841Z,101344.06
2023-04-18T11:12:13.314Z,101349.66
2023-04-18T11:14:40.718Z,101343.34
2023-04-18T11:17:07.179Z,101348.25
2023-04-18T11:19:34.553Z,101344.72
2023-04-18T11:22:02.073Z,101342.78
2023-04-18T11:24:29.541Z,101338.41
2023-04-18T11:26:56.451Z,101332.09
2023-04-18T11:29:22.967Z,101343.25
2023-04-18T11:31:50.403Z,101341.28
2023-04-18T11:34:17.829Z,101339.38
2023-04-18T11:36:45.283Z,101336.22
2023-04-18T11:39:11.761Z,101335.00
2023-04-18T11:41:39.123Z,101333.84
2023-04-18T11:44:06.545Z,101335.81
2023-04-18T11:46:33.133Z,101333.03
2023-04-18T11:48:59.620Z,101327.47
2023-04-18T11:51:26.999Z,101332.63
2023-04-18T11:53:54.434Z,101325.88
2023-04-18T11:56:21.784Z,101321.50
2023-04-18T11:58:48.252Z,101322.72
2023-04-18T12:01:14.724Z,101320.31
2023-04-18T12:03:42.291Z,101322.72
2023-04-18T12:06:08.900Z,101325.09
2023-04-18T12:08:35.350Z,101317.13
2023-04-18T12:11:01.838Z,101316.34
2023-04-18T12:13:28.280Z,101317.91
2023-04-18T12:15:54.824Z,101317.91
2023-04-18T12:18:22.261Z,101317.53
2023-04-18T12:20:49.650Z,101306.78
2023-04-18T12:23:16.117Z,101310.34
2023-04-18T12:25:42.524Z,101303.63
2023-04-18T12:28:09.912Z,101304.44
2023-04-18T12:30:37.878Z,101298.06
2023-04-18T12:33:05.382Z,101292.09
2023-04-18T12:35:31.852Z,101306.44
2023-04-18T12:37:58.350Z,101294.09
2023-04-18T12:40:24.792Z,101297.66
2023-04-18T12:42:52.161Z,101295.28
2023-04-18T12:45:19.533Z,101286.94
2023-04-18T12:47:45.991Z,101282.53
2023-04-18T12:50:12.474Z,101284.56
2023-04-18T12:52:39.834Z,101284.56
2023-04-18T12:55:07.242Z,101284.59
2023-04-18T12:57:34.527Z,101275.06
2023-04-18T13:00:01.845Z,101271.09
2023-04-18T13:02:28.385Z,101277.47
2023-04-18T13:04:55.805Z,101273.88
2023-04-18T13:07:23.211Z,101267.50
2023-04-18T13:09:50.480Z,101266.69
2023-04-18T13:12:17.721Z,101264.66
2023-04-18T13:14:45.132Z,101258.66
2023-04-18T13:17:12.495Z,101255.44
2023-04-18T13:19:38.932Z,101255.81
2023-04-18T13:22:06.299Z,101258.59
2023-04-18T13:24:32.697Z,101247.84
2023-04-18T13:27:01.579Z,101248.25
2023-04-18T13:29:28.147Z,101241.06
2023-04-18T13:31:55.541Z,101237.50
2023-04-18T13:34:22.026Z,101243.06
2023-04-18T13:36:49.276Z,101241.88
2023-04-18T13:39:17.187Z,101243.84
2023-04-18T13:41:44.573Z,101237.06
2023-04-18T13:44:10.996Z,101245.03
2023-04-18T13:46:37.428Z,101241.41
2023-04-18T13:49:04.942Z,101236.28
2023-04-18T13:51:31.372Z,101237.47
2023-04-18T13:53:57.845Z,101229.50
2023-04-18T13:56:25.529Z,101226.72
2023-04-18T13:58:51.986Z,101227.94
2023-04-18T14:01:19.585Z,101228.31
2023-04-18T14:03:47.149Z,101225.91
2023-04-18T14:06:15.133Z,101231.91
2023-04-18T14:08:43.446Z,101229.50
2023-04-18T14:11:09.877Z,101222.75
2023-04-18T14:13:37.171Z,101224.72
2023-04-18T14:16:03.629Z,101215.19
2023-04-18T14:18:30.918Z,101221.56
2023-04-18T14:20:57.344Z,101208.84
2023-04-18T14:23:23.829Z,101211.63
2023-04-18T14:25:51.166Z,101208.84
2023-04-18T14:28:18.463Z,101209.22
2023-04-18T14:30:44.950Z,101209.22
2023-04-18T14:33:12.227Z,101201.28
2023-04-18T14:35:38.761Z,101202.88
2023-04-18T14:38:06.061Z,101206.81
2023-04-18T14:40:34.340Z,101198.88
2023-04-18T14:43:01.586Z,101204.03
2023-04-18T14:45:28.098Z,101204.84
2023-04-18T14:47:54.587Z,101207.63
2023-04-18T14:50:22.969Z,101204.03
2023-04-18T14:52:51.281Z,101200.09
2023-04-18T14:55:17.725Z,101210.41
2023-04-18T14:57:44.161Z,101200.03
2023-04-18T15:00:10.623Z,101207.22
2023-04-18T15:02:38.043Z,101200.84
2023-04-18T15:05:07.610Z,101203.63
2023-04-18T15:07:34.260Z,101204.03
2023-04-18T15:10:01.507Z,101199.25
2023-04-18T15:12:27.939Z,101191.69
2023-04-18T15:14:54.420Z,101199.25
2023-04-18T15:17:20.965Z,101198.06
2023-04-18T15:19:47.435Z,101202.03
2023-04-18T15:22:13.819Z,101194.44
2023-04-18T15:24:40.370Z,101198.81
2023-04-18T15:27:06.793Z,101191.25
2023-04-18T15:29:35.077Z,101199.59
2023-04-18T15:32:01.535Z,101197.19
2023-04-18T15:34:29.867Z,101187.25
2023-04-18T15:36:56.367Z,101195.59
2023-04-18T15:39:22.799Z,101196.41
2023-04-18T15:41:51.112Z,101184.88
2023-04-18T15:44:17.566Z,101200.78
2023-04-18T15:46:43.984Z,101191.25
2023-04-18T15:49:11.549Z,101188.47
2023-04-18T15:51:38.045Z,101188.03
2023-04-18T15:54:06.339Z,101177.31
2023-04-18T15:56:35.524Z,101176.53
2023-04-18T15:59:02.004Z,101181.31
2023-04-18T16:01:31.230Z,101175.31
2023-04-18T16:04:00.534Z,101181.69
2023-04-18T16:06:27.105Z,101179.31
2023-04-18T16:08:53.552Z,101182.91
2023-04-18T16:11:20.068Z,101174.19
2023-04-18T16:13:49.265Z,101169.03
2023-04-18T16:16:17.635Z,101170.66
2023-04-18T16:18:46.021Z,101173.44
2023-04-18T16:21:12.498Z,101177.00
2023-04-18T16:23:39.736Z,101168.66
2023-04-18T16:26:08.037Z,101166.25
2023-04-18T16:28:37.390Z,101165.47
2023-04-18T16:31:03.908Z,101163.84
2023-04-18T16:33:33.175Z,101167.44
2023-04-18T16:35:59.697Z,101165.84
2023-04-18T16:38:29.211Z,101170.63
2023-04-18T16:40:55.663Z,101158.72
2023-04-18T16:43:22.111Z,101161.50
2023-04-18T16:45:50.410Z,101155.50
2023-04-18T16:48:16.836Z,101152.31
2023-04-18T16:50:43.252Z,101145.59
2023-04-18T16:53:09.683Z,101148.75
2023-04-18T16:55:37.978Z,101148.75
2023-04-18T16:58:04.449Z,101161.06
2023-04-18T17:00:30.959Z,101154.31
2023-04-18T17:02:59.364Z,101152.31
2023-04-18T17:05:25.828Z,101147.97
2023-04-18T17:07:52.370Z,101145.56
2023-04-18T17:10:18.851Z,101148.34
2023-04-18T17:12:45.335Z,101144.75
2023-04-18T17:15:11.782Z,101146.75
2023-04-18T17:17:41.044Z,101148.72
2023-04-18T17:20:09.406Z,101152.69
2023-04-18T17:22:35.837Z,101147.13
2023-04-18T17:25:04.224Z,101151.91
2023-04-18T17:27:30.670Z,101152.69
2023-04-18T17:29:57.172Z,101149.91
2023-04-18T17:32:24.507Z,101145.53
2023-04-18T17:34:52.790Z,101147.13
2023-04-18T17:37:20.080Z,101157.06
2023-04-18T17:39:48.400Z,101156.69
2023-04-18T17:42:14.842Z,101148.31
2023-04-18T17:44:43.156Z,101151.13
2023-04-18T17:47:09.577Z,101151.13
2023-04-18T17:49:36.829Z,101147.50
2023-04-18T17:52:05.126Z,101153.91
2023-04-18T17:54:31.654Z,101153.06
2023-04-18T17:56:58.889Z,101149.50
2023-04-18T17:59:27.233Z,101150.28
2023-04-18T18:01:54.634Z,101157.84
2023-04-18T18:04:25.810Z,101159.06
2023-04-18T18:06:53.123Z,101156.66
2023-04-18T18:09:20.357Z,101158.63
2023-04-18T18:11:48.647Z,101155.84
2023-04-18T18:14:15.116Z,101157.03
2023-04-18T18:16:43.437Z,101153.06
2023-04-18T18:19:10.696Z,101153.88
2023-04-18T18:21:37.114Z,101149.09
2023-04-18T18:24:04.454Z,101149.09
2023-04-18T18:26:31.707Z,101148.69
2023-04-18T18:28:58.189Z,101147.88
2023-04-18T18:31:26.508Z,101142.72
2023-04-18T18:33:52.947Z,101147.09
2023-04-18T18:36:19.484Z,101138.75
2023-04-18T18:38:46.723Z,101137.94
2023-04-18T18:41:13.968Z,101143.50
2023-04-18T18:43:40.443Z,101149.06
2023-04-18T18:46:07.085Z,101137.94
2023-04-18T18:48:37.048Z,101134.38
2023-04-18T18:51:04.308Z,101137.16
2023-04-18T18:53:32.658Z,101133.56
2023-04-18T18:55:59.141Z,101131.16
2023-04-18T18:58:28.304Z,101127.97
2023-04-18T19:00:54.748Z,101127.97
2023-04-18T19:03:22.110Z,101129.59
2023-04-18T19:05:50.508Z,101131.97
2023-04-18T19:08:16.905Z,101116.47
2023-04-18T19:10:43.395Z,101120.84
2023-04-18T19:13:09.881Z,101127.56
2023-04-18T19:15:36.294Z,101118.44
2023-04-18T19:18:02.806Z,101118.44
2023-04-18T19:20:30.119Z,101112.50
2023-04-18T19:22:56.680Z,101118.06
2023-04-18T19:25:25.083Z,101112.50
2023-04-18T19:27:51.482Z,101117.63
2023-04-18T19:30:18.000Z,101103.31
2023-04-18T19:32:45.253Z,101114.03
2023-04-18T19:35:12.552Z,101102.91
2023-04-18T19:37:40.840Z,101107.72
2023-04-18T19:40:07.275Z,101106.53
2023-04-18T19:42:34.514Z,101097.75
2023-04-18T19:45:00.936Z,101103.72
2023-04-18T19:47:27.524Z,101106.50
2023-04-18T19:49:54.059Z,101100.94
2023-04-18T19:52:22.426Z,101095.78
2023-04-18T19:54:48.900Z,101097.75
2023-04-18T19:57:15.318Z,101101.72
2023-04-18T19:59:41.749Z,101092.56
2023-04-18T20:02:10.076Z,101088.19
2023-04-18T20:04:37.639Z,101098.13
2023-04-18T20:07:05.039Z,101103.28
2023-04-18T20:09:32.306Z,101095.31
2023-04-18T20:11:59.541Z,101096.13
2023-04-18T20:14:27.888Z,101096.50
2023-04-18T20:16:54.485Z,101098.09
2023-04-18T20:19:21.774Z,101092.53
2023-04-18T20:21:49.011Z,101088.97
2023-04-18T20:24:15.513Z,101092.13
2023-04-18T20:26:43.852Z,101088.94
2023-04-18T20:29:11.099Z,101080.19
2023-04-18T20:31:37.550Z,101082.16
2023-04-18T20:34:04.899Z,101083.00
2023-04-18T20:36:32.155Z,101086.16
2023-04-18T20:39:00.490Z,101082.56
2023-04-18T20:41:28.087Z,101079.00
2023-04-18T20:43:56.375Z,101082.19
2023-04-18T20:46:22.910Z,101078.22
2023-04-18T20:48:49.334Z,101071.84
2023-04-18T20:51:15.836Z,101070.25
2023-04-18T20:53:42.252Z,101071.47
2023-04-18T20:56:10.629Z,101069.81
2023-04-18T20:58:38.924Z,101057.91
2023-04-18T21:01:06.215Z,101062.28
2023-04-18T21:03:32.886Z,101059.88
2023-04-18T21:06:00.241Z,101055.13
2023-04-18T21:08:26.648Z,101046.78
2023-04-18T21:10:53.849Z,101047.97
2023-04-18T21:13:22.167Z,101048.78
2023-04-18T21:15:49.419Z,101042.44
2023-04-18T21:18:18.784Z,101044.41
2023-04-18T21:20:45.276Z,101038.06
2023-04-18T21:23:12.507Z,101045.59
2023-04-18T21:25:38.903Z,101036.06
2023-04-18T21:28:07.221Z,101037.66
2023-04-18T21:30:34.493Z,101040.88
2023-04-18T21:33:02.857Z,101022.56
2023-04-18T21:35:30.214Z,101027.72
2023-04-18T21:37:58.507Z,101029.28
2023-04-18T21:40:25.750Z,101028.50
2023-04-18T21:42:52.252Z,101026.13
2023-04-18T21:45:19.533Z,101022.53
2023-04-18T21:47:46.942Z,101024.94
2023-04-18T21:50:13.471Z,101028.88
2023-04-18T21:52:39.972Z,101020.53
2023-04-18T21:55:07.233Z,101019.75
2023-04-18T21:57:34.464Z,101014.59
2023-04-18T22:00:00.940Z,101015.78
2023-04-18T22:02:29.393Z,101023.72
2023-04-18T22:04:56.764Z,101024.13
2023-04-18T22:07:24.008Z,101015.78
2023-04-18T22:09:50.462Z,101016.59
2023-04-18T22:12:16.965Z,101011.81
2023-04-18T22:14:43.414Z,101012.22
2023-04-18T22:17:09.932Z,101010.63
2023-04-18T22:19:36.426Z,101007.03
2023-04-18T22:22:02.894Z,100998.69
2023-04-18T22:24:29.375Z,101002.28
2023-04-18T22:26:57.662Z,101001.47
2023-04-18T22:29:24.250Z,100997.91
2023-04-18T22:31:52.543Z,100993.13
2023-04-18T22:34:20.814Z,100994.31
2023-04-18T22:36:47.136Z,100988.78
2023-04-18T22:39:13.637Z,100982.00
2023-04-18T22:41:41.914Z,100973.66
2023-04-18T22:44:09.142Z,100976.44
2023-04-18T22:46:38.808Z,100972.47
2023-04-18T22:49:08.155Z,100965.72
2023-04-18T22:51:34.612Z,100965.72
2023-04-18T22:54:01.063Z,100967.28
2023-04-18T22:56:29.315Z,100959.34
2023-04-18T22:58:55.813Z,100956.19
2023-04-18T23:01:23.211Z,100947.84
2023-04-18T23:03:49.805Z,100958.16
2023-04-18T23:06:16.403Z,100952.59
2023-04-18T23:08:42.762Z,100953.41
2023-04-18T23:11:11.928Z,100944.25
2023-04-18T23:13:38.360Z,100941.47
2023-04-18T23:16:05.700Z,100935.44
2023-04-18T23:18:32.178Z,100945.78
2023-04-18T23:20:58.592Z,100935.44
2023-04-18T23:23:25.813Z,100933.41
2023-04-18T23:25:52.234Z,100935.41
2023-04-18T23:28:19.538Z,100924.63
2023-04-18T23:30:45.886Z,100923.84
2023-04-18T23:33:13.156Z,100927.41
2023-04-18T23:35:39.575Z,100918.28
2023-04-18T23:38:06.097Z,100920.66
2023-04-18T23:40:32.558Z,100906.38
2023-04-18T23:43:00.860Z,100907.91
2023-04-18T23:45:27.308Z,100908.31
2023-04-18T23:47:54.560Z,100902.34
2023-04-18T23:50:20.964Z,100905.50
2023-04-18T23:52:47.301Z,100894.41
2023-04-18T23:55:13.791Z,100901.16
2023-04-18T23:57:40.172Z,100886.06
